createdAt,value
2022-11-12T00:01:38.015Z,453.09091
2022-11-12T00:06:39.937Z,440.77419
2022-11-12T00:11:42.152Z,436.8
2022-11-12T00:16:44.008Z,429.03937
2022-11-12T00:21:45.807Z,414.22901
2022-11-12T00:26:47.735Z,403.70149
2022-11-12T00:31:49.641Z,396.94118
2022-11-12T00:36:51.314Z,390.37681
2022-11-12T00:41:53.347Z,390.37681
2022-11-12T00:46:54.886Z,387.16547
2022-11-12T00:51:56.408Z,374.76923
2022-11-12T00:56:58.452Z,368.82759
2022-11-12T01:02:00.005Z,384
2022-11-12T01:07:01.648Z,400.2963
2022-11-12T01:12:03.675Z,421.51938
2022-11-12T01:17:05.249Z,436.8
2022-11-12T01:22:07.028Z,444.81301
2022-11-12T01:27:08.813Z,444.81301
2022-11-12T01:32:10.354Z,448.91803
2022-11-12T01:37:11.882Z,432.88889
2022-11-12T01:42:13.705Z,429.03937
2022-11-12T01:47:15.464Z,421.51938
2022-11-12T01:52:17.105Z,417.84615
2022-11-12T01:57:18.676Z,417.84615
2022-11-12T02:02:20.148Z,414.22901
2022-11-12T02:07:21.633Z,400.2963
2022-11-12T02:12:23.647Z,396.94118
2022-11-12T02:17:25.165Z,410.66667
2022-11-12T02:22:26.643Z,407.15789
2022-11-12T02:27:28.126Z,417.84615
2022-11-12T02:32:29.698Z,421.51938
2022-11-12T02:37:31.321Z,429.03937
2022-11-12T02:42:33.170Z,421.51938
2022-11-12T02:47:34.935Z,414.22901
2022-11-12T02:52:36.638Z,403.70149
2022-11-12T02:57:38.455Z,400.2963
2022-11-12T03:02:40.376Z,396.94118
2022-11-12T03:07:41.891Z,393.63504
2022-11-12T03:12:44.105Z,390.37681
2022-11-12T03:17:46.658Z,390.37681
2022-11-12T03:23:04.908Z,384
2022-11-12T03:28:14.850Z,384
2022-11-12T03:33:20.777Z,384
2022-11-12T03:38:24.009Z,384
2022-11-12T03:43:31.392Z,387.16547
2022-11-12T03:48:48.043Z,384
2022-11-12T03:53:54.194Z,380.87943
2022-11-12T03:58:56.510Z,393.63504
2022-11-12T04:04:01.954Z,390.37681
2022-11-12T04:09:09.547Z,393.63504
2022-11-12T04:14:15.224Z,403.70149
2022-11-12T04:19:18.065Z,403.70149
2022-11-12T04:24:28.539Z,400.2963
2022-11-12T04:29:46.612Z,396.94118
2022-11-12T04:34:49.203Z,396.94118
2022-11-12T04:45:16.221Z,393.63504
2022-11-12T04:51:00.197Z,429.03937
2022-11-12T04:56:16.237Z,414.22901
2022-11-12T05:01:21.548Z,429.03937
2022-11-12T05:06:30.197Z,432.88889
2022-11-12T05:11:36.431Z,440.77419
2022-11-12T05:16:49.672Z,432.88889
2022-11-12T05:21:52.083Z,417.84615
2022-11-12T05:27:00.081Z,448.91803
2022-11-12T05:32:19.158Z,432.88889
2022-11-12T05:37:55.036Z,466.0339
2022-11-12T05:42:58.521Z,448.91803
2022-11-12T05:48:04.061Z,440.77419
2022-11-12T05:53:05.857Z,475.03448
2022-11-12T05:58:07.377Z,448.91803
2022-11-12T06:03:08.819Z,461.64706
2022-11-12T06:08:10.542Z,432.88889
2022-11-12T06:13:11.996Z,444.81301
2022-11-12T06:18:13.494Z,453.09091
2022-11-12T06:23:15.544Z,429.03937
2022-11-12T06:28:16.968Z,421.51938
2022-11-12T06:33:18.514Z,432.88889
2022-11-12T06:38:20.280Z,421.51938
2022-11-12T06:43:21.820Z,489.13274
2022-11-12T06:48:23.373Z,494
2022-11-12T06:53:25.395Z,457.33333
2022-11-12T06:58:27.093Z,475.03448
2022-11-12T07:03:28.686Z,484.35088
2022-11-12T07:08:30.590Z,509.13761
2022-11-12T07:13:32.152Z,536.30769
2022-11-12T07:18:33.894Z,525.13208
2022-11-12T07:23:36.114Z,494
2022-11-12T07:28:37.903Z,530.66667
2022-11-12T07:33:39.910Z,479.65217
2022-11-12T07:38:41.719Z,514.37037
2022-11-12T07:43:43.568Z,509.13761
2022-11-12T07:48:45.446Z,509.13761
2022-11-12T07:53:47.396Z,484.35088
2022-11-12T07:58:48.866Z,484.35088
2022-11-12T08:03:50.363Z,504
2022-11-12T08:08:52.160Z,514.37037
2022-11-12T08:13:53.937Z,504
2022-11-12T08:18:56.747Z,489.13274
2022-11-12T08:23:58.381Z,475.03448
2022-11-12T08:29:03.932Z,498.95495
2022-11-12T08:34:08.469Z,494
2022-11-12T08:39:10.014Z,509.13761
2022-11-12T08:44:11.830Z,504
2022-11-12T08:49:13.599Z,525.13208
2022-11-12T08:54:15.293Z,530.66667
2022-11-12T08:59:17.078Z,509.13761
2022-11-12T09:04:18.686Z,484.35088
2022-11-12T09:09:20.658Z,525.13208
2022-11-12T09:14:22.191Z,530.66667
2022-11-12T09:19:24.313Z,542.05825
2022-11-12T09:24:26.301Z,514.37037
2022-11-12T09:29:28.202Z,542.05825
2022-11-12T09:34:29.993Z,514.37037
2022-11-12T09:39:31.806Z,494
2022-11-12T09:44:36.764Z,494
2022-11-12T09:49:40.733Z,509.13761
2022-11-12T09:54:42.560Z,504
2022-11-12T09:59:44.376Z,536.30769
2022-11-12T10:04:46.237Z,525.13208
2022-11-12T10:09:48.035Z,475.03448
2022-11-12T10:14:49.941Z,470.49573
2022-11-12T10:19:51.895Z,514.37037
2022-11-12T10:24:53.792Z,504
2022-11-12T10:29:55.756Z,504
2022-11-12T10:34:57.959Z,494
2022-11-12T10:39:59.801Z,509.13761
2022-11-12T10:45:01.731Z,525.13208
2022-11-12T10:50:03.668Z,509.13761
2022-11-12T10:55:05.085Z,504
2022-11-12T11:00:06.653Z,484.35088
2022-11-12T11:05:08.175Z,448.91803
2022-11-12T11:10:09.827Z,613.56522
2022-11-12T11:15:11.428Z,686.16867
2022-11-12T11:20:13.366Z,652.04598
2022-11-12T11:25:14.996Z,636.13483
2022-11-12T11:30:16.910Z,652.04598
2022-11-12T11:35:18.390Z,606.36559
2022-11-12T11:40:20.463Z,599.31915
2022-11-12T11:45:22.286Z,636.13483
2022-11-12T11:50:24.145Z,668.70588
2022-11-12T11:55:25.911Z,652.04598
2022-11-12T12:00:27.741Z,644
2022-11-12T12:05:29.427Z,644
2022-11-12T12:10:53.312Z,599.31915
2022-11-12T12:16:03.416Z,585.66667
2022-11-12T12:21:05.325Z,592.42105
2022-11-12T12:26:07.487Z,620.92308
2022-11-12T12:31:09.240Z,599.31915
2022-11-12T12:36:10.724Z,620.92308
2022-11-12T12:41:12.601Z,644
2022-11-12T12:46:14.557Z,668.70588
2022-11-12T12:51:16.614Z,652.04598
2022-11-12T12:56:18.532Z,620.92308
2022-11-12T13:01:20.332Z,644
2022-11-12T13:06:21.870Z,686.16867
2022-11-12T13:11:23.501Z,686.16867
2022-11-12T13:16:25.160Z,668.70588
2022-11-12T13:21:26.806Z,733.74359
2022-11-12T13:26:28.331Z,686.16867
2022-11-12T13:31:30.083Z,644
2022-11-12T13:36:31.548Z,652.04598
2022-11-12T13:41:33.228Z,660.27907
2022-11-12T13:46:35.357Z,652.04598
2022-11-12T13:51:39.398Z,620.92308
2022-11-12T13:56:41.632Z,636.13483
2022-11-12T14:01:43.461Z,628.44444
2022-11-12T14:06:45.418Z,660.27907
2022-11-12T14:11:47.362Z,668.70588
2022-11-12T14:16:49.086Z,620.92308
2022-11-12T14:21:50.956Z,644
2022-11-12T14:26:53.163Z,636.13483
2022-11-12T14:31:55.169Z,585.66667
2022-11-12T14:36:58.487Z,579.05155
2022-11-12T14:42:00.867Z,553.90099
2022-11-12T14:47:02.688Z,592.42105
2022-11-12T14:52:04.825Z,579.05155
2022-11-12T14:57:06.463Z,585.66667
2022-11-12T15:02:28.644Z,613.56522
2022-11-12T15:07:34.507Z,628.44444
2022-11-12T15:12:36.285Z,620.92308
2022-11-12T15:17:38.183Z,560
2022-11-12T15:22:40.015Z,547.92157
2022-11-12T15:27:48.017Z,592.42105
2022-11-12T15:33:00.252Z,585.66667
2022-11-12T15:38:12.174Z,585.66667
2022-11-12T15:43:13.893Z,628.44444
2022-11-12T15:48:15.459Z,613.56522
2022-11-12T15:53:17.314Z,620.92308
2022-11-12T15:58:19.101Z,585.66667
2022-11-12T16:03:20.859Z,592.42105
2022-11-12T16:08:22.916Z,530.66667
2022-11-12T16:13:25.006Z,585.66667
2022-11-12T16:18:27.179Z,592.42105
2022-11-12T16:23:29.292Z,547.92157
2022-11-12T16:28:31.236Z,572.57143
2022-11-12T16:33:33.002Z,572.57143
2022-11-12T16:38:34.943Z,566.22222
2022-11-12T16:43:37.186Z,542.05825
2022-11-12T16:48:39.265Z,457.33333
2022-11-12T16:53:41.219Z,470.49573
2022-11-12T16:58:43.049Z,530.66667
2022-11-12T17:03:45.445Z,530.66667
2022-11-12T17:08:47.603Z,560
2022-11-12T17:13:49.561Z,599.31915
2022-11-12T17:18:51.497Z,620.92308
2022-11-12T17:23:53.578Z,553.90099
2022-11-12T17:29:02.206Z,620.92308
2022-11-12T17:34:04.420Z,599.31915
2022-11-12T17:39:07.291Z,599.31915
2022-11-12T17:44:10.311Z,530.66667
2022-11-12T17:49:11.894Z,536.30769
2022-11-12T17:54:13.640Z,572.57143
2022-11-12T17:59:15.382Z,553.90099
2022-11-12T18:04:17.292Z,560
2022-11-12T18:09:19.651Z,553.90099
2022-11-12T18:14:21.419Z,504
2022-11-12T18:19:23.292Z,489.13274
2022-11-12T18:24:25.410Z,504
2022-11-12T18:29:27.234Z,494
2022-11-12T18:34:28.935Z,504
2022-11-12T18:39:31.532Z,509.13761
2022-11-12T18:44:33.345Z,519.70093
2022-11-12T18:49:35.359Z,525.13208
2022-11-12T18:54:37.581Z,536.30769
2022-11-12T18:59:40.400Z,525.13208
2022-11-12T19:04:45.366Z,519.70093
2022-11-12T19:09:47.939Z,542.05825
2022-11-12T19:14:50.222Z,530.66667
2022-11-12T19:19:52.324Z,525.13208
2022-11-12T19:24:54.246Z,542.05825
2022-11-12T19:29:59.935Z,542.05825
2022-11-12T19:35:05.031Z,542.05825
2022-11-12T19:40:07.016Z,519.70093
2022-11-12T19:45:08.625Z,547.92157
2022-11-12T19:52:07.379Z,566.22222
2022-11-12T19:57:09.305Z,566.22222
2022-11-12T20:02:11.029Z,585.66667
2022-11-12T20:07:12.664Z,542.05825
2022-11-12T20:12:14.888Z,542.05825
2022-11-12T20:17:16.474Z,525.13208
2022-11-12T20:22:18.081Z,536.30769
2022-11-12T20:27:20.849Z,536.30769
2022-11-12T20:32:22.531Z,530.66667
2022-11-12T20:37:24.235Z,536.30769
2022-11-12T20:42:26.250Z,547.92157
2022-11-12T20:47:33.939Z,542.05825
2022-11-12T20:52:35.974Z,542.05825
2022-11-12T20:57:37.775Z,547.92157
2022-11-12T21:02:39.437Z,553.90099
2022-11-12T21:07:43.171Z,560
2022-11-12T21:12:45.247Z,560
2022-11-12T21:17:47.208Z,519.70093
2022-11-12T21:22:49.126Z,519.70093
2022-11-12T21:27:50.919Z,547.92157
2022-11-12T21:32:52.771Z,553.90099
2022-11-12T21:38:26.314Z,542.05825
2022-11-12T21:43:29.093Z,542.05825
2022-11-12T21:48:32.380Z,536.30769
2022-11-12T21:53:33.923Z,542.05825
2022-11-12T21:58:36.491Z,525.13208
2022-11-12T22:03:38.929Z,509.13761
2022-11-12T22:08:40.415Z,514.37037
2022-11-12T22:13:42.249Z,509.13761
2022-11-12T22:18:44.465Z,530.66667
2022-11-12T22:23:46.388Z,509.13761
2022-11-12T22:28:48.015Z,504
2022-11-12T22:33:49.515Z,509.13761
2022-11-12T22:38:51.215Z,494
2022-11-12T22:43:52.952Z,504
2022-11-12T22:48:54.483Z,494
2022-11-12T22:53:55.986Z,489.13274
2022-11-12T22:58:57.645Z,466.0339
2022-11-12T23:03:59.318Z,457.33333
2022-11-12T23:09:00.745Z,444.81301
2022-11-12T23:14:02.568Z,429.03937
2022-11-12T23:19:04.066Z,425.25
2022-11-12T23:24:05.751Z,414.22901
2022-11-12T23:29:07.549Z,393.63504
2022-11-12T23:34:09.042Z,403.70149
2022-11-12T23:39:10.488Z,387.16547
2022-11-12T23:44:12.816Z,363.04762
2022-11-12T23:49:14.778Z,344
2022-11-12T23:54:16.327Z,331.42138
2022-11-12T23:59:18.580Z,308.49704
